sensor_id;sensor_type;location;lat;lon;timestamp;pressure;altitude;pressure_sealevel;temperature;humidity
66703;BME280;60933;46.398;-63.798;2023-02-23T00:01:27;101666.16;;;-6.17;50.49
66703;BME280;60933;46.398;-63.798;2023-02-23T00:03:56;101677.97;;;-6.16;50.78
66703;BME280;60933;46.398;-63.798;2023-02-23T00:06:25;101671.19;;;-6.32;50.15
66703;BME280;60933;46.398;-63.798;2023-02-23T00:08:52;101687.56;;;-6.24;50.44
66703;BME280;60933;46.398;-63.798;2023-02-23T00:11:20;101687.97;;;-6.31;49.94
66703;BME280;60933;46.398;-63.798;2023-02-23T00:13:47;101684.13;;;-6.40;50.38
66703;BME280;60933;46.398;-63.798;2023-02-23T00:16:19;101688.38;;;-6.39;50.12
66703;BME280;60933;46.398;-63.798;2023-02-23T00:18:47;101692.78;;;-6.49;49.88
66703;BME280;60933;46.398;-63.798;2023-02-23T00:21:21;101702.81;;;-6.49;49.54
66703;BME280;60933;46.398;-63.798;2023-02-23T00:24:12;101695.81;;;-6.55;50.40
66703;BME280;60933;46.398;-63.798;2023-02-23T00:26:43;101687.03;;;-6.62;50.07
66703;BME280;60933;46.398;-63.798;2023-02-23T00:29:15;101695.03;;;-6.68;50.36
66703;BME280;60933;46.398;-63.798;2023-02-23T00:31:43;101695.81;;;-6.69;50.78
66703;BME280;60933;46.398;-63.798;2023-02-23T00:34:11;101696.34;;;-6.74;49.19
66703;BME280;60933;46.398;-63.798;2023-02-23T00:36:38;101700.09;;;-6.81;49.17
66703;BME280;60933;46.398;-63.798;2023-02-23T00:39:08;101699.22;;;-6.81;49.88
66703;BME280;60933;46.398;-63.798;2023-02-23T00:41:48;101691.16;;;-6.91;49.31
66703;BME280;60933;46.398;-63.798;2023-02-23T00:44:15;101685.06;;;-6.94;48.89
66703;BME280;60933;46.398;-63.798;2023-02-23T00:46:41;101689.13;;;-6.96;50.13
66703;BME280;60933;46.398;-63.798;2023-02-23T00:49:10;101701.38;;;-7.01;49.86
66703;BME280;60933;46.398;-63.798;2023-02-23T00:51:37;101702.75;;;-7.06;49.66
66703;BME280;60933;46.398;-63.798;2023-02-23T00:54:04;101715.84;;;-7.10;49.94
66703;BME280;60933;46.398;-63.798;2023-02-23T00:56:31;101716.53;;;-7.13;49.73
66703;BME280;60933;46.398;-63.798;2023-02-23T00:58:57;101714.63;;;-7.17;49.82
66703;BME280;60933;46.398;-63.798;2023-02-23T01:01:23;101725.22;;;-7.21;49.55
66703;BME280;60933;46.398;-63.798;2023-02-23T01:03:49;101729.09;;;-7.26;49.27
66703;BME280;60933;46.398;-63.798;2023-02-23T01:06:18;101735.25;;;-7.35;48.96
66703;BME280;60933;46.398;-63.798;2023-02-23T01:08:49;101734.19;;;-7.38;49.18
66703;BME280;60933;46.398;-63.798;2023-02-23T01:11:18;101736.63;;;-7.40;48.66
66703;BME280;60933;46.398;-63.798;2023-02-23T01:13:50;101747.97;;;-7.45;48.71
66703;BME280;60933;46.398;-63.798;2023-02-23T01:16:20;101738.41;;;-7.51;48.65
66703;BME280;60933;46.398;-63.798;2023-02-23T01:18:47;101734.06;;;-7.53;48.17
66703;BME280;60933;46.398;-63.798;2023-02-23T01:21:28;101740.44;;;-7.58;47.98
66703;BME280;60933;46.398;-63.798;2023-02-23T01:23:54;101745.13;;;-7.63;48.10
66703;BME280;60933;46.398;-63.798;2023-02-23T01:26:21;101751.69;;;-7.65;48.45
66703;BME280;60933;46.398;-63.798;2023-02-23T01:28:52;101764.03;;;-7.68;48.34
66703;BME280;60933;46.398;-63.798;2023-02-23T01:31:20;101789.78;;;-7.71;48.51
66703;BME280;60933;46.398;-63.798;2023-02-23T01:33:47;101771.94;;;-7.75;48.86
66703;BME280;60933;46.398;-63.798;2023-02-23T01:36:13;101769.78;;;-7.83;48.57
66703;BME280;60933;46.398;-63.798;2023-02-23T01:38:40;101776.22;;;-7.86;47.70
66703;BME280;60933;46.398;-63.798;2023-02-23T01:41:06;101779.94;;;-7.93;47.09
66703;BME280;60933;46.398;-63.798;2023-02-23T01:43:34;101790.56;;;-7.97;47.65
66703;BME280;60933;46.398;-63.798;2023-02-23T01:46:02;101816.81;;;-8.04;47.70
66703;BME280;60933;46.398;-63.798;2023-02-23T01:48:38;101811.59;;;-8.07;47.46
66703;BME280;60933;46.398;-63.798;2023-02-23T01:51:12;101811.09;;;-8.15;48.00
66703;BME280;60933;46.398;-63.798;2023-02-23T01:53:44;101804.56;;;-8.24;47.58
66703;BME280;60933;46.398;-63.798;2023-02-23T01:56:17;101802.94;;;-8.24;47.87
66703;BME280;60933;46.398;-63.798;2023-02-23T01:58:49;101806.94;;;-8.26;48.26
66703;BME280;60933;46.398;-63.798;2023-02-23T02:01:19;101807.44;;;-8.32;48.19
66703;BME280;60933;46.398;-63.798;2023-02-23T02:03:57;101803.97;;;-8.46;47.99
66703;BME280;60933;46.398;-63.798;2023-02-23T02:06:25;101834.34;;;-8.41;48.24
66703;BME280;60933;46.398;-63.798;2023-02-23T02:08:58;101805.50;;;-8.48;47.72
66703;BME280;60933;46.398;-63.798;2023-02-23T02:11:25;101808.56;;;-8.52;47.98
66703;BME280;60933;46.398;-63.798;2023-02-23T02:14:36;101794.84;;;-8.57;48.31
66703;BME280;60933;46.398;-63.798;2023-02-23T02:30:53;101809.66;;;-8.96;50.81
66703;BME280;60933;46.398;-63.798;2023-02-23T02:39:14;101825.84;;;-9.14;50.43
66703;BME280;60933;46.398;-63.798;2023-02-23T02:47:14;101823.22;;;-9.28;51.93
66703;BME280;60933;46.398;-63.798;2023-02-23T02:53:09;101827.97;;;-9.43;51.55
66703;BME280;60933;46.398;-63.798;2023-02-23T02:55:37;101850.47;;;-9.43;51.26
66703;BME280;60933;46.398;-63.798;2023-02-23T02:58:07;101839.91;;;-9.50;51.59
66703;BME280;60933;46.398;-63.798;2023-02-23T03:00:37;101849.16;;;-9.49;51.38
66703;BME280;60933;46.398;-63.798;2023-02-23T03:06:20;101857.59;;;-9.59;51.77
66703;BME280;60933;46.398;-63.798;2023-02-23T03:09:48;101858.19;;;-9.74;52.20
66703;BME280;60933;46.398;-63.798;2023-02-23T03:18:53;101907.06;;;-9.77;50.86
66703;BME280;60933;46.398;-63.798;2023-02-23T03:21:48;101899.06;;;-9.83;50.17
66703;BME280;60933;46.398;-63.798;2023-02-23T03:24:43;101894.25;;;-9.92;49.46
66703;BME280;60933;46.398;-63.798;2023-02-23T03:30:39;101899.94;;;-10.05;49.87
66703;BME280;60933;46.398;-63.798;2023-02-23T03:33:42;101892.59;;;-10.14;49.64
66703;BME280;60933;46.398;-63.798;2023-02-23T03:36:32;101909.72;;;-10.19;50.31
66703;BME280;60933;46.398;-63.798;2023-02-23T03:40:15;101910.88;;;-10.25;50.04
66703;BME280;60933;46.398;-63.798;2023-02-23T03:42:37;101914.88;;;-10.27;49.98
66703;BME280;60933;46.398;-63.798;2023-02-23T03:45:24;101912.53;;;-10.36;50.85
66703;BME280;60933;46.398;-63.798;2023-02-23T03:48:11;101913.94;;;-10.40;50.29
66703;BME280;60933;46.398;-63.798;2023-02-23T03:51:02;101899.59;;;-10.42;51.48
66703;BME280;60933;46.398;-63.798;2023-02-23T03:54:06;101891.50;;;-10.50;51.07
66703;BME280;60933;46.398;-63.798;2023-02-23T03:56:54;101889.63;;;-10.53;51.76
66703;BME280;60933;46.398;-63.798;2023-02-23T03:59:46;101891.78;;;-10.57;51.62
66703;BME280;60933;46.398;-63.798;2023-02-23T04:02:33;101899.00;;;-10.60;51.04
66703;BME280;60933;46.398;-63.798;2023-02-23T04:05:20;101905.50;;;-10.62;51.01
66703;BME280;60933;46.398;-63.798;2023-02-23T04:08:10;101897.53;;;-10.69;50.72
66703;BME280;60933;46.398;-63.798;2023-02-23T04:11:07;101901.66;;;-10.69;51.50
66703;BME280;60933;46.398;-63.798;2023-02-23T04:13:58;101919.88;;;-10.70;52.02
66703;BME280;60933;46.398;-63.798;2023-02-23T04:16:27;101916.50;;;-10.71;52.40
66703;BME280;60933;46.398;-63.798;2023-02-23T04:18:54;101907.03;;;-10.75;51.64
66703;BME280;60933;46.398;-63.798;2023-02-23T04:21:20;101908.53;;;-10.77;52.18
66703;BME280;60933;46.398;-63.798;2023-02-23T04:23:46;101900.03;;;-10.79;52.27
66703;BME280;60933;46.398;-63.798;2023-02-23T04:26:13;101915.63;;;-10.82;52.68
66703;BME280;60933;46.398;-63.798;2023-02-23T04:28:39;101918.75;;;-10.84;53.29
66703;BME280;60933;46.398;-63.798;2023-02-23T04:31:05;101924.25;;;-10.88;53.36
66703;BME280;60933;46.398;-63.798;2023-02-23T04:33:31;101925.00;;;-10.89;53.23
66703;BME280;60933;46.398;-63.798;2023-02-23T04:35:57;101926.38;;;-10.93;52.95
66703;BME280;60933;46.398;-63.798;2023-02-23T04:38:23;101926.22;;;-10.94;52.84
66703;BME280;60933;46.398;-63.798;2023-02-23T04:40:49;101945.94;;;-10.98;53.39
66703;BME280;60933;46.398;-63.798;2023-02-23T04:43:15;101948.44;;;-10.98;53.57
66703;BME280;60933;46.398;-63.798;2023-02-23T04:45:41;101949.66;;;-11.03;53.36
66703;BME280;60933;46.398;-63.798;2023-02-23T04:48:08;101968.75;;;-11.03;53.54
66703;BME280;60933;46.398;-63.798;2023-02-23T04:50:34;101946.19;;;-11.15;53.73
66703;BME280;60933;46.398;-63.798;2023-02-23T04:53:00;101974.09;;;-11.09;54.05
66703;BME280;60933;46.398;-63.798;2023-02-23T04:55:26;101977.13;;;-11.13;54.18
66703;BME280;60933;46.398;-63.798;2023-02-23T04:57:57;101976.72;;;-11.18;54.24
66703;BME280;60933;46.398;-63.798;2023-02-23T05:00:24;101985.06;;;-11.17;54.28
66703;BME280;60933;46.398;-63.798;2023-02-23T05:02:50;101993.91;;;-11.21;54.93
66703;BME280;60933;46.398;-63.798;2023-02-23T05:05:16;102005.53;;;-11.21;54.51
66703;BME280;60933;46.398;-63.798;2023-02-23T05:07:43;102008.75;;;-11.22;54.36
66703;BME280;60933;46.398;-63.798;2023-02-23T05:10:10;101996.78;;;-11.26;53.79
66703;BME280;60933;46.398;-63.798;2023-02-23T05:12:36;102009.09;;;-11.28;54.59
66703;BME280;60933;46.398;-63.798;2023-02-23T05:15:02;102007.22;;;-11.31;54.15
66703;BME280;60933;46.398;-63.798;2023-02-23T05:17:30;102015.44;;;-11.32;54.01
66703;BME280;60933;46.398;-63.798;2023-02-23T05:19:56;102015.22;;;-11.35;54.49
66703;BME280;60933;46.398;-63.798;2023-02-23T05:22:22;102024.06;;;-11.38;54.63
66703;BME280;60933;46.398;-63.798;2023-02-23T05:24:48;102009.44;;;-11.44;53.91
66703;BME280;60933;46.398;-63.798;2023-02-23T05:27:15;102021.16;;;-11.43;54.52
66703;BME280;60933;46.398;-63.798;2023-02-23T05:29:42;102027.34;;;-11.48;54.55
66703;BME280;60933;46.398;-63.798;2023-02-23T05:32:08;102033.84;;;-11.50;54.11
66703;BME280;60933;46.398;-63.798;2023-02-23T05:34:34;102027.97;;;-11.51;54.71
66703;BME280;60933;46.398;-63.798;2023-02-23T05:37:03;102033.56;;;-11.53;54.33
66703;BME280;60933;46.398;-63.798;2023-02-23T05:39:30;102042.28;;;-11.58;54.47
66703;BME280;60933;46.398;-63.798;2023-02-23T05:41:56;102041.28;;;-11.61;54.55
66703;BME280;60933;46.398;-63.798;2023-02-23T05:44:22;102034.88;;;-11.67;54.67
66703;BME280;60933;46.398;-63.798;2023-02-23T05:46:49;102027.81;;;-11.63;54.86
66703;BME280;60933;46.398;-63.798;2023-02-23T05:49:15;102026.66;;;-11.66;55.11
66703;BME280;60933;46.398;-63.798;2023-02-23T05:51:41;102048.06;;;-11.68;55.56
66703;BME280;60933;46.398;-63.798;2023-02-23T05:54:08;102036.22;;;-11.71;55.51
66703;BME280;60933;46.398;-63.798;2023-02-23T05:56:34;102029.38;;;-11.73;55.82
66703;BME280;60933;46.398;-63.798;2023-02-23T05:59:01;102043.47;;;-11.74;56.21
66703;BME280;60933;46.398;-63.798;2023-02-23T06:01:29;102037.47;;;-11.76;55.99
66703;BME280;60933;46.398;-63.798;2023-02-23T06:03:56;102048.91;;;-11.78;56.09
66703;BME280;60933;46.398;-63.798;2023-02-23T06:06:22;102055.84;;;-11.84;56.47
66703;BME280;60933;46.398;-63.798;2023-02-23T06:08:51;102075.16;;;-11.82;56.59
66703;BME280;60933;46.398;-63.798;2023-02-23T06:11:17;102086.63;;;-11.84;56.87
66703;BME280;60933;46.398;-63.798;2023-02-23T06:13:43;102083.75;;;-11.88;57.15
66703;BME280;60933;46.398;-63.798;2023-02-23T06:16:09;102072.88;;;-11.89;57.31
66703;BME280;60933;46.398;-63.798;2023-02-23T06:18:36;102058.84;;;-11.88;56.90
66703;BME280;60933;46.398;-63.798;2023-02-23T06:21:02;102072.47;;;-11.94;57.33
66703;BME280;60933;46.398;-63.798;2023-02-23T06:23:28;102066.50;;;-11.96;57.43
66703;BME280;60933;46.398;-63.798;2023-02-23T06:25:54;102072.25;;;-11.97;57.53
66703;BME280;60933;46.398;-63.798;2023-02-23T06:28:24;102070.50;;;-11.98;57.83
66703;BME280;60933;46.398;-63.798;2023-02-23T06:30:54;102059.72;;;-12.07;57.76
66703;BME280;60933;46.398;-63.798;2023-02-23T06:33:21;102059.00;;;-12.06;58.23
66703;BME280;60933;46.398;-63.798;2023-02-23T06:35:50;102043.03;;;-12.08;57.92
66703;BME280;60933;46.398;-63.798;2023-02-23T06:38:17;102040.31;;;-12.11;58.57
66703;BME280;60933;46.398;-63.798;2023-02-23T06:40:43;102044.13;;;-12.15;58.34
66703;BME280;60933;46.398;-63.798;2023-02-23T06:43:09;102038.13;;;-12.17;58.56
66703;BME280;60933;46.398;-63.798;2023-02-23T06:45:35;102037.72;;;-12.21;58.96
66703;BME280;60933;46.398;-63.798;2023-02-23T06:48:01;102029.25;;;-12.23;59.13
66703;BME280;60933;46.398;-63.798;2023-02-23T06:50:27;102025.75;;;-12.26;59.00
66703;BME280;60933;46.398;-63.798;2023-02-23T06:52:53;102025.63;;;-12.27;58.91
66703;BME280;60933;46.398;-63.798;2023-02-23T06:55:21;102018.75;;;-12.30;59.47
66703;BME280;60933;46.398;-63.798;2023-02-23T06:57:48;102012.91;;;-12.30;59.93
66703;BME280;60933;46.398;-63.798;2023-02-23T07:00:15;102015.00;;;-12.35;59.20
66703;BME280;60933;46.398;-63.798;2023-02-23T07:02:42;102030.38;;;-12.39;59.51
66703;BME280;60933;46.398;-63.798;2023-02-23T07:05:10;102036.97;;;-12.39;59.75
66703;BME280;60933;46.398;-63.798;2023-02-23T07:07:36;102035.97;;;-12.42;59.73
66703;BME280;60933;46.398;-63.798;2023-02-23T07:10:03;102025.00;;;-12.44;59.65
66703;BME280;60933;46.398;-63.798;2023-02-23T07:12:32;102043.16;;;-12.45;60.15
66703;BME280;60933;46.398;-63.798;2023-02-23T07:14:58;102039.50;;;-12.48;59.81
66703;BME280;60933;46.398;-63.798;2023-02-23T07:17:24;102038.53;;;-12.50;60.40
66703;BME280;60933;46.398;-63.798;2023-02-23T07:19:50;102032.41;;;-12.54;60.31
66703;BME280;60933;46.398;-63.798;2023-02-23T07:22:16;102035.00;;;-12.52;60.99
66703;BME280;60933;46.398;-63.798;2023-02-23T07:24:42;102035.75;;;-12.53;60.56
66703;BME280;60933;46.398;-63.798;2023-02-23T07:27:08;102033.25;;;-12.53;60.49
66703;BME280;60933;46.398;-63.798;2023-02-23T07:29:34;102042.19;;;-12.55;60.34
66703;BME280;60933;46.398;-63.798;2023-02-23T07:32:00;102034.47;;;-12.59;60.64
66703;BME280;60933;46.398;-63.798;2023-02-23T07:34:26;102039.75;;;-12.64;60.77
66703;BME280;60933;46.398;-63.798;2023-02-23T07:36:52;102038.91;;;-12.65;60.84
66703;BME280;60933;46.398;-63.798;2023-02-23T07:39:18;102011.88;;;-12.70;61.17
66703;BME280;60933;46.398;-63.798;2023-02-23T07:41:44;102016.97;;;-12.69;61.16
66703;BME280;60933;46.398;-63.798;2023-02-23T07:44:10;102023.41;;;-12.71;61.33
66703;BME280;60933;46.398;-63.798;2023-02-23T07:46:36;102036.59;;;-12.72;61.11
66703;BME280;60933;46.398;-63.798;2023-02-23T07:49:03;102038.06;;;-12.74;61.36
66703;BME280;60933;46.398;-63.798;2023-02-23T07:51:29;102017.88;;;-12.77;61.86
66703;BME280;60933;46.398;-63.798;2023-02-23T07:53:55;102020.38;;;-12.77;61.73
66703;BME280;60933;46.398;-63.798;2023-02-23T07:56:21;102019.34;;;-12.79;61.88
66703;BME280;60933;46.398;-63.798;2023-02-23T07:58:47;102017.34;;;-12.83;62.24
66703;BME280;60933;46.398;-63.798;2023-02-23T08:01:13;102008.84;;;-12.85;62.42
66703;BME280;60933;46.398;-63.798;2023-02-23T08:03:39;102003.47;;;-12.90;62.31
66703;BME280;60933;46.398;-63.798;2023-02-23T08:06:05;102014.75;;;-12.94;62.64
66703;BME280;60933;46.398;-63.798;2023-02-23T08:08:31;102015.47;;;-12.95;62.56
66703;BME280;60933;46.398;-63.798;2023-02-23T08:11:01;102014.50;;;-12.97;62.98
66703;BME280;60933;46.398;-63.798;2023-02-23T08:13:28;102000.75;;;-13.02;62.61
66703;BME280;60933;46.398;-63.798;2023-02-23T08:15:54;102001.50;;;-13.03;63.05
66703;BME280;60933;46.398;-63.798;2023-02-23T08:18:20;102014.50;;;-13.06;63.07
66703;BME280;60933;46.398;-63.798;2023-02-23T08:20:46;102015.84;;;-13.09;63.19
66703;BME280;60933;46.398;-63.798;2023-02-23T08:23:12;102018.06;;;-13.12;63.00
66703;BME280;60933;46.398;-63.798;2023-02-23T08:25:38;102028.75;;;-13.13;63.29
66703;BME280;60933;46.398;-63.798;2023-02-23T08:28:04;102018.50;;;-13.16;63.13
66703;BME280;60933;46.398;-63.798;2023-02-23T08:30:31;102040.00;;;-13.17;63.15
66703;BME280;60933;46.398;-63.798;2023-02-23T08:32:58;102043.09;;;-13.19;63.19
66703;BME280;60933;46.398;-63.798;2023-02-23T08:35:26;102047.03;;;-13.22;63.12
66703;BME280;60933;46.398;-63.798;2023-02-23T08:37:53;102045.88;;;-13.25;63.30
66703;BME280;60933;46.398;-63.798;2023-02-23T08:40:19;102048.38;;;-13.25;62.98
66703;BME280;60933;46.398;-63.798;2023-02-23T08:42:46;102044.13;;;-13.26;63.04
66703;BME280;60933;46.398;-63.798;2023-02-23T08:45:17;102043.25;;;-13.27;63.36
66703;BME280;60933;46.398;-63.798;2023-02-23T08:47:43;102060.66;;;-13.27;63.12
66703;BME280;60933;46.398;-63.798;2023-02-23T08:50:11;102059.63;;;-13.29;63.32
66703;BME280;60933;46.398;-63.798;2023-02-23T08:52:38;102062.00;;;-13.30;63.38
66703;BME280;60933;46.398;-63.798;2023-02-23T08:55:05;102050.41;;;-13.30;63.67
66703;BME280;60933;46.398;-63.798;2023-02-23T08:57:33;102058.59;;;-13.31;63.55
66703;BME280;60933;46.398;-63.798;2023-02-23T08:59:59;102071.75;;;-13.32;63.73
66703;BME280;60933;46.398;-63.798;2023-02-23T09:02:25;102069.16;;;-13.33;63.61
66703;BME280;60933;46.398;-63.798;2023-02-23T09:04:52;102069.00;;;-13.35;63.61
66703;BME280;60933;46.398;-63.798;2023-02-23T09:07:19;102063.78;;;-13.38;63.95
66703;BME280;60933;46.398;-63.798;2023-02-23T09:09:55;102058.81;;;-13.38;64.01
66703;BME280;60933;46.398;-63.798;2023-02-23T09:12:22;102047.00;;;-13.49;64.14
66703;BME280;60933;46.398;-63.798;2023-02-23T09:14:48;102058.84;;;-13.47;64.24
66703;BME280;60933;46.398;-63.798;2023-02-23T09:17:16;102067.63;;;-13.50;64.58
66703;BME280;60933;46.398;-63.798;2023-02-23T09:19:43;102071.41;;;-13.54;64.99
66703;BME280;60933;46.398;-63.798;2023-02-23T09:22:09;102076.97;;;-13.57;64.90
66703;BME280;60933;46.398;-63.798;2023-02-23T09:24:35;102082.69;;;-13.58;64.83
66703;BME280;60933;46.398;-63.798;2023-02-23T09:27:04;102090.72;;;-13.60;64.98
66703;BME280;60933;46.398;-63.798;2023-02-23T09:29:32;102098.72;;;-13.63;65.13
66703;BME280;60933;46.398;-63.798;2023-02-23T09:31:58;102093.50;;;-13.66;65.03
66703;BME280;60933;46.398;-63.798;2023-02-23T09:34:24;102106.91;;;-13.73;64.94
66703;BME280;60933;46.398;-63.798;2023-02-23T09:36:50;102100.06;;;-13.75;64.75
66703;BME280;60933;46.398;-63.798;2023-02-23T09:39:20;102105.03;;;-13.75;64.78
66703;BME280;60933;46.398;-63.798;2023-02-23T09:47:18;102116.28;;;-13.79;64.63
66703;BME280;60933;46.398;-63.798;2023-02-23T09:49:48;102121.97;;;-13.80;64.30
66703;BME280;60933;46.398;-63.798;2023-02-23T09:52:23;102121.84;;;-13.81;64.30
66703;BME280;60933;46.398;-63.798;2023-02-23T09:54:50;102128.38;;;-13.82;64.27
66703;BME280;60933;46.398;-63.798;2023-02-23T09:57:24;102131.47;;;-13.85;64.16
66703;BME280;60933;46.398;-63.798;2023-02-23T09:59:52;102128.97;;;-13.85;64.27
66703;BME280;60933;46.398;-63.798;2023-02-23T10:05:27;102110.88;;;-13.92;64.14
66703;BME280;60933;46.398;-63.798;2023-02-23T10:08:05;102111.47;;;-13.95;63.89
66703;BME280;60933;46.398;-63.798;2023-02-23T10:10:37;102130.00;;;-13.91;63.97
66703;BME280;60933;46.398;-63.798;2023-02-23T10:16:08;102117.88;;;-13.97;63.51
66703;BME280;60933;46.398;-63.798;2023-02-23T10:21:43;102112.91;;;-13.97;63.57
66703;BME280;60933;46.398;-63.798;2023-02-23T10:26:53;102102.41;;;-14.03;63.01
66703;BME280;60933;46.398;-63.798;2023-02-23T10:31:55;102100.34;;;-14.07;62.67
66703;BME280;60933;46.398;-63.798;2023-02-23T10:34:22;102095.09;;;-14.10;62.90
66703;BME280;60933;46.398;-63.798;2023-02-23T10:36:57;102074.78;;;-14.15;62.69
66703;BME280;60933;46.398;-63.798;2023-02-23T10:39:25;102085.72;;;-14.13;62.66
66703;BME280;60933;46.398;-63.798;2023-02-23T10:41:52;102091.44;;;-14.14;62.53
66703;BME280;60933;46.398;-63.798;2023-02-23T10:44:21;102086.03;;;-14.19;62.62
66703;BME280;60933;46.398;-63.798;2023-02-23T10:47:10;102085.13;;;-14.19;62.73
66703;BME280;60933;46.398;-63.798;2023-02-23T10:49:42;102095.97;;;-14.19;62.52
66703;BME280;60933;46.398;-63.798;2023-02-23T10:52:14;102093.31;;;-14.20;62.92
66703;BME280;60933;46.398;-63.798;2023-02-23T10:54:46;102104.00;;;-14.21;62.65
66703;BME280;60933;46.398;-63.798;2023-02-23T10:57:30;102104.53;;;-14.24;62.65
66703;BME280;60933;46.398;-63.798;2023-02-23T11:00:09;102102.06;;;-14.24;62.83
66703;BME280;60933;46.398;-63.798;2023-02-23T11:02:52;102093.63;;;-14.26;63.07
66703;BME280;60933;46.398;-63.798;2023-02-23T11:08:20;102098.56;;;-14.26;63.01
66703;BME280;60933;46.398;-63.798;2023-02-23T11:13:40;102104.97;;;-14.28;63.29
66703;BME280;60933;46.398;-63.798;2023-02-23T11:16:29;102103.22;;;-14.29;63.30
66703;BME280;60933;46.398;-63.798;2023-02-23T11:19:04;102101.34;;;-14.32;63.40
66703;BME280;60933;46.398;-63.798;2023-02-23T11:21:37;102135.34;;;-14.30;63.27
66703;BME280;60933;46.398;-63.798;2023-02-23T11:24:20;102117.06;;;-14.31;63.53
66703;BME280;60933;46.398;-63.798;2023-02-23T11:26:50;102109.06;;;-14.28;63.94
66703;BME280;60933;46.398;-63.798;2023-02-23T11:29:29;102118.44;;;-14.26;63.62
66703;BME280;60933;46.398;-63.798;2023-02-23T11:32:25;102130.06;;;-14.25;63.56
66703;BME280;60933;46.398;-63.798;2023-02-23T11:37:46;102140.16;;;-14.23;63.33
66703;BME280;60933;46.398;-63.798;2023-02-23T11:40:31;102150.22;;;-14.22;63.58
66703;BME280;60933;46.398;-63.798;2023-02-23T11:43:08;102147.34;;;-14.18;63.12
66703;BME280;60933;46.398;-63.798;2023-02-23T11:45:49;102149.38;;;-14.13;63.34
66703;BME280;60933;46.398;-63.798;2023-02-23T11:50:53;102141.34;;;-14.11;63.23
66703;BME280;60933;46.398;-63.798;2023-02-23T11:53:45;102139.31;;;-14.06;63.14
66703;BME280;60933;46.398;-63.798;2023-02-23T11:56:18;102125.47;;;-14.04;62.70
66703;BME280;60933;46.398;-63.798;2023-02-23T11:58:49;102109.53;;;-14.06;63.41
66703;BME280;60933;46.398;-63.798;2023-02-23T12:01:33;102120.78;;;-14.01;63.16
66703;BME280;60933;46.398;-63.798;2023-02-23T12:04:00;102117.75;;;-13.98;63.19
66703;BME280;60933;46.398;-63.798;2023-02-23T12:06:39;102104.75;;;-13.96;63.15
66703;BME280;60933;46.398;-63.798;2023-02-23T12:09:25;102098.28;;;-13.94;62.61
66703;BME280;60933;46.398;-63.798;2023-02-23T12:12:22;102098.47;;;-13.92;63.28
66703;BME280;60933;46.398;-63.798;2023-02-23T12:15:03;102090.72;;;-13.95;62.76
66703;BME280;60933;46.398;-63.798;2023-02-23T12:17:39;102109.97;;;-13.93;62.55
66703;BME280;60933;46.398;-63.798;2023-02-23T12:20:17;102118.47;;;-13.91;62.85
66703;BME280;60933;46.398;-63.798;2023-02-23T12:23:01;102105.31;;;-13.90;62.57
66703;BME280;60933;46.398;-63.798;2023-02-23T12:25:32;102106.94;;;-13.81;62.33
66703;BME280;60933;46.398;-63.798;2023-02-23T12:28:01;102105.34;;;-13.72;62.25
66703;BME280;60933;46.398;-63.798;2023-02-23T12:30:45;102101.53;;;-13.60;62.08
66703;BME280;60933;46.398;-63.798;2023-02-23T12:33:20;102098.88;;;-13.53;61.87
66703;BME280;60933;46.398;-63.798;2023-02-23T12:42:09;102076.94;;;-13.39;61.10
66703;BME280;60933;46.398;-63.798;2023-02-23T12:47:33;102086.06;;;-13.21;60.70
66703;BME280;60933;46.398;-63.798;2023-02-23T12:52:54;102087.09;;;-13.27;60.69
66703;BME280;60933;46.398;-63.798;2023-02-23T12:58:49;102098.47;;;-13.03;61.09
66703;BME280;60933;46.398;-63.798;2023-02-23T13:04:11;102101.34;;;-12.90;59.83
66703;BME280;60933;46.398;-63.798;2023-02-23T13:06:56;102095.88;;;-12.77;60.69
66703;BME280;60933;46.398;-63.798;2023-02-23T13:18:17;102097.75;;;-12.74;59.50
66703;BME280;60933;46.398;-63.798;2023-02-23T13:20:53;102093.47;;;-12.66;60.08
66703;BME280;60933;46.398;-63.798;2023-02-23T13:23:31;102093.88;;;-12.62;60.05
66703;BME280;60933;46.398;-63.798;2023-02-23T13:26:37;102092.03;;;-12.45;59.75
66703;BME280;60933;46.398;-63.798;2023-02-23T13:31:56;102100.56;;;-12.52;59.28
66703;BME280;60933;46.398;-63.798;2023-02-23T13:34:44;102095.28;;;-12.46;59.42
66703;BME280;60933;46.398;-63.798;2023-02-23T13:37:16;102102.72;;;-12.37;59.64
66703;BME280;60933;46.398;-63.798;2023-02-23T13:40:17;102111.25;;;-12.25;58.76
66703;BME280;60933;46.398;-63.798;2023-02-23T13:43:05;102107.88;;;-12.26;58.59
66703;BME280;60933;46.398;-63.798;2023-02-23T13:45:59;102122.84;;;-12.06;59.33
66703;BME280;60933;46.398;-63.798;2023-02-23T13:49:24;102122.81;;;-11.98;58.71
66703;BME280;60933;46.398;-63.798;2023-02-23T13:51:46;102136.44;;;-11.84;58.56
66703;BME280;60933;46.398;-63.798;2023-02-23T13:56:48;102127.13;;;-11.57;57.47
66703;BME280;60933;46.398;-63.798;2023-02-23T13:59:19;102136.44;;;-11.46;57.36
66703;BME280;60933;46.398;-63.798;2023-02-23T14:01:49;102133.31;;;-11.43;57.50
66703;BME280;60933;46.398;-63.798;2023-02-23T14:04:21;102135.53;;;-11.46;56.87
66703;BME280;60933;46.398;-63.798;2023-02-23T14:09:43;102129.56;;;-11.19;57.63
66703;BME280;60933;46.398;-63.798;2023-02-23T14:12:15;102116.09;;;-11.21;57.80
66703;BME280;60933;46.398;-63.798;2023-02-23T14:14:45;102125.19;;;-11.21;57.80
66703;BME280;60933;46.398;-63.798;2023-02-23T14:23:16;102131.66;;;-11.23;56.40
66703;BME280;60933;46.398;-63.798;2023-02-23T14:26:07;102130.44;;;-11.18;56.52
66703;BME280;60933;46.398;-63.798;2023-02-23T14:28:35;102134.22;;;-11.03;56.01
66703;BME280;60933;46.398;-63.798;2023-02-23T14:42:13;102115.69;;;-11.25;56.32
66703;BME280;60933;46.398;-63.798;2023-02-23T14:44:29;102111.59;;;-11.25;56.47
66703;BME280;60933;46.398;-63.798;2023-02-23T14:49:44;102107.47;;;-11.24;55.45
66703;BME280;60933;46.398;-63.798;2023-02-23T14:52:31;102105.50;;;-11.18;55.70
66703;BME280;60933;46.398;-63.798;2023-02-23T14:57:40;102088.03;;;-11.18;56.02